Time,TemperatureF,DewpointF,PressureIn,WindDirection,WindDirectionDegrees,WindSpeedMPH,WindSpeedGustMPH,Humidity,HourlyPrecipIn,Conditions,Clouds,dailyrainin,SoftwareType,DateUTC
2015-08-01 01:41:00,65.0,60.7,29.93,West,265,0.0,0.0,86,0.00,,,0.00,WUHU216DAVISVP2,2015-08-01 08:41:00,
2015-08-01 01:46:00,64.6,61.0,29.93,West,265,0.0,0.0,88,0.00,,,0.00,WUHU216DAVISVP2,2015-08-01 08:46:00,
2015-08-01 01:51:00,64.4,60.8,29.93,West,265,1.0,1.0,88,0.00,,,0.00,WUHU216DAVISVP2,2015-08-01 08:51:00,
2015-08-01 01:56:00,64.3,61.0,29.93,West,265,0.0,1.0,89,0.00,,,0.00,WUHU216DAVISVP2,2015-08-01 08:56:00,
2015-08-01 02:01:00,64.1,60.1,29.92,West,265,0.0,1.0,87,0.00,,,0.00,WUHU216DAVISVP2,2015-08-01 09:01:00,
2015-08-01 02:06:00,64.0,59.7,29.92,West,265,0.0,1.0,86,0.00,,,0.00,WUHU216DAVISVP2,2015-08-01 09:06:00,
2015-08-01 02:11:00,63.9,59.0,29.92,West,265,1.0,1.0,84,0.00,,,0.00,WUHU216DAVISVP2,2015-08-01 09:11:00,
2015-08-01 02:16:00,63.9,58.7,29.92,West,265,0.0,1.0,83,0.00,,,0.00,WUHU216DAVISVP2,2015-08-01 09:16:00,
2015-08-01 02:21:00,63.8,58.9,29.92,West,265,0.0,1.0,84,0.00,,,0.00,WUHU216DAVISVP2,2015-08-01 09:21:00,
2015-08-01 02:26:00,63.8,58.9,29.92,West,265,0.0,1.0,84,0.00,,,0.00,WUHU216DAVISVP2,2015-08-01 09:26:00,
2015-08-01 02:31:00,63.7,58.8,29.91,West,265,0.0,2.0,84,0.00,,,0.00,WUHU216DAVISVP2,2015-08-01 09:31:00,
2015-08-01 02:36:00,63.6,58.7,29.91,West,265,0.0,2.0,84,0.00,,,0.00,WUHU216DAVISVP2,2015-08-01 09:36:00,
2015-08-01 02:41:00,63.5,58.6,29.91,West,265,0.0,1.0,84,0.00,,,0.00,WUHU216DAVISVP2,2015-08-01 09:41:00,
2015-08-01 02:46:00,63.5,58.0,29.91,West,265,0.0,1.0,82,0.00,,,0.00,WUHU216DAVISVP2,2015-08-01 09:46:00,
2015-08-01 02:51:00,63.8,58.2,29.91,West,265,0.0,2.0,82,0.00,,,0.00,WUHU216DAVISVP2,2015-08-01 09:51:00,
2015-08-01 02:56:00,64.1,57.9,29.91,West,265,0.0,2.0,80,0.00,,,0.00,WUHU216DAVISVP2,2015-08-01 09:56:00,
2015-08-01 03:01:00,64.3,57.4,29.91,West,265,0.0,2.0,78,0.00,,,0.00,WUHU216DAVISVP2,2015-08-01 10:01:00,
2015-08-01 03:06:00,64.5,57.2,29.91,West,265,0.0,2.0,77,0.00,,,0.00,WUHU216DAVISVP2,2015-08-01 10:06:00,
2015-08-01 03:11:00,64.7,57.4,29.91,West,265,0.0,1.0,77,0.00,,,0.00,WUHU216DAVISVP2,2015-08-01 10:11:00,
2015-08-01 03:16:00,64.7,57.1,29.91,West,265,0.0,0.0,76,0.00,,,0.00,WUHU216DAVISVP2,2015-08-01 10:16:00,
2015-08-01 03:21:00,64.7,57.4,29.91,West,265,0.0,0.0,77,0.00,,,0.00,WUHU216DAVISVP2,2015-08-01 10:21:00,
2015-08-01 03:26:00,64.7,57.8,29.91,West,265,0.0,1.0,78,0.00,,,0.00,WUHU216DAVISVP2,2015-08-01 10:26:00,
2015-08-01 03:31:00,64.7,56.7,29.91,West,265,0.0,1.0,75,0.00,,,0.00,WUHU216DAVISVP2,2015-08-01 10:31:00,
2015-08-01 03:36:00,65.0,57.0,29.91,West,265,0.0,0.0,75,0.00,,,0.00,WUHU216DAVISVP2,2015-08-01 10:36:00,
2015-08-01 03:41:00,65.3,57.3,29.91,West,265,0.0,1.0,75,0.00,,,0.00,WUHU216DAVISVP2,2015-08-01 10:41:00,
2015-08-01 03:46:00,65.4,57.4,29.91,West,265,0.0,1.0,75,0.00,,,0.00,WUHU216DAVISVP2,2015-08-01 10:46:00,
2015-08-01 03:51:00,65.5,57.8,29.91,West,265,0.0,1.0,76,0.00,,,0.00,WUHU216DAVISVP2,2015-08-01 10:51:00,
2015-08-01 03:56:00,65.4,58.1,29.91,West,265,0.0,1.0,77,0.00,,,0.00,WUHU216DAVISVP2,2015-08-01 10:56:00,
2015-08-01 04:01:00,65.3,58.0,29.91,West,265,0.0,0.0,77,0.00,,,0.00,WUHU216DAVISVP2,2015-08-01 11:01:00,
2015-08-01 04:06:00,65.1,57.5,29.92,West,265,0.0,2.0,76,0.00,,,0.00,WUHU216DAVISVP2,2015-08-01 11:06:00,
2015-08-01 04:11:00,65.2,56.8,29.92,West,265,0.0,2.0,74,0.00,,,0.00,WUHU216DAVISVP2,2015-08-01 11:11:00,
2015-08-01 04:16:00,65.3,57.3,29.92,West,265,0.0,1.0,75,0.00,,,0.00,WUHU216DAVISVP2,2015-08-01 11:16:00,
2015-08-01 04:21:00,65.4,57.4,29.92,West,265,0.0,1.0,75,0.00,,,0.00,WUHU216DAVISVP2,2015-08-01 11:21:00,
2015-08-01 04:26:00,65.3,57.7,29.92,West,265,0.0,0.0,76,0.00,,,0.00,WUHU216DAVISVP2,2015-08-01 11:26:00,
2015-08-01 04:31:00,65.1,57.5,29.91,West,265,0.0,0.0,76,0.00,,,0.00,WUHU216DAVISVP2,2015-08-01 11:31:00,
2015-08-01 04:36:00,65.1,56.7,29.91,West,265,0.0,0.0,74,0.00,,,0.00,WUHU216DAVISVP2,2015-08-01 11:36:00,
2015-08-01 04:41:00,65.1,57.1,29.91,West,265,0.0,0.0,75,0.00,,,0.00,WUHU216DAVISVP2,2015-08-01 11:41:00,
2015-08-01 04:46:00,65.2,57.9,29.91,West,265,0.0,0.0,77,0.00,,,0.00,WUHU216DAVISVP2,2015-08-01 11:46:00,
2015-08-01 04:51:00,64.9,58.0,29.91,West,265,0.0,0.0,78,0.00,,,0.00,WUHU216DAVISVP2,2015-08-01 11:51:00,
2015-08-01 04:56:00,64.8,58.2,29.91,West,265,0.0,0.0,79,0.00,,,0.00,WUHU216DAVISVP2,2015-08-01 11:56:00,
2015-08-01 05:01:00,64.7,58.5,29.91,West,265,0.0,0.0,80,0.00,,,0.00,WUHU216DAVISVP2,2015-08-01 12:01:00,
2015-08-01 05:06:00,64.6,58.4,29.91,West,265,0.0,1.0,80,0.00,,,0.00,WUHU216DAVISVP2,2015-08-01 12:06:00,
2015-08-01 05:11:00,64.6,58.7,29.91,West,265,0.0,1.0,81,0.00,,,0.00,WUHU216DAVISVP2,2015-08-01 12:11:00,
2015-08-01 05:16:00,64.5,58.6,29.91,West,265,0.0,0.0,81,0.00,,,0.00,WUHU216DAVISVP2,2015-08-01 12:16:00,
2015-08-01 05:21:00,64.5,58.6,29.91,West,265,0.0,0.0,81,0.00,,,0.00,WUHU216DAVISVP2,2015-08-01 12:21:00,
2015-08-01 05:26:00,64.5,58.6,29.91,West,265,0.0,1.0,81,0.00,,,0.00,WUHU216DAVISVP2,2015-08-01 12:26:00,
2015-08-01 05:31:00,64.4,58.8,29.91,West,265,0.0,1.0,82,0.00,,,0.00,WUHU216DAVISVP2,2015-08-01 12:31:00,
2015-08-01 05:36:00,64.3,58.7,29.91,West,265,0.0,0.0,82,0.00,,,0.00,WUHU216DAVISVP2,2015-08-01 12:36:00,
2015-08-01 05:41:00,64.2,58.6,29.91,West,265,0.0,0.0,82,0.00,,,0.00,WUHU216DAVISVP2,2015-08-01 12:41:00,
2015-08-01 05:46:00,64.2,58.6,29.92,West,265,0.0,0.0,82,0.00,,,0.00,WUHU216DAVISVP2,2015-08-01 12:46:00,
2015-08-01 05:51:00,64.1,59.2,29.92,West,265,0.0,0.0,84,0.00,,,0.00,WUHU216DAVISVP2,2015-08-01 12:51:00,
2015-08-01 05:56:00,64.0,58.8,29.92,West,265,0.0,0.0,83,0.00,,,0.00,WUHU216DAVISVP2,2015-08-01 12:56:00,
2015-08-01 06:01:00,63.9,58.0,29.92,West,265,0.0,0.0,81,0.00,,,0.00,WUHU216DAVISVP2,2015-08-01 13:01:00,
2015-08-01 06:06:00,63.9,58.3,29.92,West,265,0.0,0.0,82,0.00,,,0.00,WUHU216DAVISVP2,2015-08-01 13:06:00,
2015-08-01 06:11:00,63.9,58.7,29.92,West,265,0.0,0.0,83,0.00,,,0.00,WUHU216DAVISVP2,2015-08-01 13:11:00,
2015-08-01 06:16:00,64.0,58.4,29.92,West,265,0.0,0.0,82,0.00,,,0.00,WUHU216DAVISVP2,2015-08-01 13:16:00,
2015-08-01 06:21:00,64.1,58.2,29.92,West,265,0.0,0.0,81,0.00,,,0.00,WUHU216DAVISVP2,2015-08-01 13:21:00,
2015-08-01 06:26:00,64.1,56.8,29.92,West,265,0.0,0.0,77,0.00,,,0.00,WUHU216DAVISVP2,2015-08-01 13:26:00,
2015-08-01 06:31:00,64.1,56.5,29.93,West,265,0.0,0.0,76,0.00,,,0.00,WUHU216DAVISVP2,2015-08-01 13:31:00,
2015-08-01 06:36:00,64.2,57.6,29.93,West,265,0.0,0.0,79,0.00,,,0.00,WUHU216DAVISVP2,2015-08-01 13:36:00,
2015-08-01 06:41:00,64.4,56.4,29.93,West,265,0.0,0.0,75,0.00,,,0.00,WUHU216DAVISVP2,2015-08-01 13:41:00,
2015-08-01 06:46:00,65.0,55.9,29.93,West,265,0.0,0.0,72,0.00,,,0.00,WUHU216DAVISVP2,2015-08-01 13:46:00,
2015-08-01 06:51:00,65.6,59.0,29.93,West,265,0.0,0.0,79,0.00,,,0.00,WUHU216DAVISVP2,2015-08-01 13:51:00,
2015-08-01 06:56:00,65.5,58.2,29.93,West,265,0.0,0.0,77,0.00,,,0.00,WUHU216DAVISVP2,2015-08-01 13:56:00,
2015-08-01 07:01:00,65.6,57.9,29.94,West,265,0.0,0.0,76,0.00,,,0.00,WUHU216DAVISVP2,2015-08-01 14:01:00,
2015-08-01 07:06:00,65.6,57.9,29.93,West,265,0.0,0.0,76,0.00,,,0.00,WUHU216DAVISVP2,2015-08-01 14:06:00,
2015-08-01 07:11:00,65.8,58.5,29.93,West,265,0.0,0.0,77,0.00,,,0.00,WUHU216DAVISVP2,2015-08-01 14:11:00,
2015-08-01 07:16:00,66.0,59.4,29.93,West,265,0.0,0.0,79,0.00,,,0.00,WUHU216DAVISVP2,2015-08-01 14:16:00,
2015-08-01 07:21:00,66.1,59.5,29.93,West,265,0.0,0.0,79,0.00,,,0.00,WUHU216DAVISVP2,2015-08-01 14:21:00,
2015-08-01 07:26:00,66.3,59.3,29.93,West,265,0.0,0.0,78,0.00,,,0.00,WUHU216DAVISVP2,2015-08-01 14:26:00,
2015-08-01 07:31:00,66.5,59.5,29.94,West,265,0.0,0.0,78,0.00,,,0.00,WUHU216DAVISVP2,2015-08-01 14:31:00,
2015-08-01 07:36:00,66.6,59.6,29.94,West,265,0.0,0.0,78,0.00,,,0.00,WUHU216DAVISVP2,2015-08-01 14:36:00,
2015-08-01 07:41:00,66.8,59.8,29.94,West,265,0.0,0.0,78,0.00,,,0.00,WUHU216DAVISVP2,2015-08-01 14:41:00,
2015-08-01 07:46:00,67.1,60.1,29.94,West,265,0.0,0.0,78,0.00,,,0.00,WUHU216DAVISVP2,2015-08-01 14:46:00,
2015-08-01 07:51:00,67.3,59.9,29.94,West,265,0.0,0.0,77,0.00,,,0.00,WUHU216DAVISVP2,2015-08-01 14:51:00,
2015-08-01 07:56:00,67.4,59.7,29.94,West,265,0.0,0.0,76,0.00,,,0.00,WUHU216DAVISVP2,2015-08-01 14:56:00,
2015-08-01 08:01:00,67.5,60.1,29.94,West,265,0.0,0.0,77,0.00,,,0.00,WUHU216DAVISVP2,2015-08-01 15:01:00,
2015-08-01 08:06:00,67.6,59.5,29.94,West,265,0.0,0.0,75,0.00,,,0.00,WUHU216DAVISVP2,2015-08-01 15:06:00,
2015-08-01 08:11:00,67.8,59.0,29.94,West,265,0.0,0.0,73,0.00,,,0.00,WUHU216DAVISVP2,2015-08-01 15:11:00,
2015-08-01 08:16:00,68.1,60.0,29.94,West,265,0.0,0.0,75,0.00,,,0.00,WUHU216DAVISVP2,2015-08-01 15:16:00,
2015-08-01 08:21:00,68.4,59.2,29.94,West,265,0.0,0.0,72,0.00,,,0.00,WUHU216DAVISVP2,2015-08-01 15:21:00,
2015-08-01 08:26:00,68.6,58.8,29.94,West,265,0.0,0.0,71,0.00,,,0.00,WUHU216DAVISVP2,2015-08-01 15:26:00,
2015-08-01 08:31:00,68.8,59.0,29.94,West,265,0.0,0.0,71,0.00,,,0.00,WUHU216DAVISVP2,2015-08-01 15:31:00,
2015-08-01 08:36:00,69.0,60.0,29.94,West,265,0.0,0.0,73,0.00,,,0.00,WUHU216DAVISVP2,2015-08-01 15:36:00,
2015-08-01 08:41:00,69.1,60.2,29.94,West,265,0.0,0.0,73,0.00,,,0.00,WUHU216DAVISVP2,2015-08-01 15:41:00,
2015-08-01 08:46:00,69.3,60.4,29.94,West,265,0.0,0.0,73,0.00,,,0.00,WUHU216DAVISVP2,2015-08-01 15:46:00,
2015-08-01 08:51:00,69.4,60.1,29.94,West,265,0.0,0.0,72,0.00,,,0.00,WUHU216DAVISVP2,2015-08-01 15:51:00,
2015-08-01 08:56:00,69.5,58.7,29.94,West,265,0.0,0.0,68,0.00,,,0.00,WUHU216DAVISVP2,2015-08-01 15:56:00,
2015-08-01 09:01:00,69.5,57.2,29.94,West,265,0.0,1.0,65,0.00,,,0.00,WUHU216DAVISVP2,2015-08-01 16:01:00,
2015-08-01 09:06:00,69.7,57.0,29.95,West,265,0.0,1.0,64,0.00,,,0.00,WUHU216DAVISVP2,2015-08-01 16:06:00,
2015-08-01 09:11:00,69.9,57.2,29.94,West,265,0.0,2.0,64,0.00,,,0.00,WUHU216DAVISVP2,2015-08-01 16:11:00,
2015-08-01 09:16:00,70.2,57.4,29.94,West,265,0.0,2.0,64,0.00,,,0.00,WUHU216DAVISVP2,2015-08-01 16:16:00,
2015-08-01 09:21:00,70.7,57.9,29.94,West,265,0.0,2.0,64,0.00,,,0.00,WUHU216DAVISVP2,2015-08-01 16:21:00,
2015-08-01 09:26:00,70.8,57.6,29.94,West,265,0.0,4.0,63,0.00,,,0.00,WUHU216DAVISVP2,2015-08-01 16:26:00,
2015-08-01 09:31:00,71.3,58.1,29.95,West,265,0.0,4.0,63,0.00,,,0.00,WUHU216DAVISVP2,2015-08-01 16:31:00,
2015-08-01 09:36:00,71.6,57.9,29.95,West,265,0.0,1.0,62,0.00,,,0.00,WUHU216DAVISVP2,2015-08-01 16:36:00,
2015-08-01 09:41:00,72.1,58.6,29.95,West,265,0.0,0.0,62,0.00,,,0.00,WUHU216DAVISVP2,2015-08-01 16:41:00,
2015-08-01 09:46:00,72.7,58.2,29.95,West,265,0.0,0.0,60,0.00,,,0.00,WUHU216DAVISVP2,2015-08-01 16:46:00,
2015-08-01 09:51:00,73.0,58.0,29.95,West,265,2.0,2.0,59,0.00,,,0.00,WUHU216DAVISVP2,2015-08-01 16:51:00,
2015-08-01 09:56:00,73.1,58.1,29.95,West,265,0.0,2.0,59,0.00,,,0.00,WUHU216DAVISVP2,2015-08-01 16:56:00,
2015-08-01 10:01:00,73.3,57.6,29.95,NW,322,2.0,5.0,58,0.00,,,0.00,WUHU216DAVISVP2,2015-08-01 17:01:00,
2015-08-01 10:06:00,73.5,58.3,29.95,NW,325,0.0,5.0,59,0.00,,,0.00,WUHU216DAVISVP2,2015-08-01 17:06:00,
2015-08-01 10:11:00,73.4,57.9,29.95,NNW,332,2.0,4.0,58,0.00,,,0.00,WUHU216DAVISVP2,2015-08-01 17:11:00,
2015-08-01 10:16:00,73.4,57.4,29.95,NNW,333,1.0,6.0,57,0.00,,,0.00,WUHU216DAVISVP2,2015-08-01 17:16:00,
2015-08-01 10:21:00,73.6,58.6,29.95,NNW,342,1.0,6.0,59,0.00,,,0.00,WUHU216DAVISVP2,2015-08-01 17:21:00,
2015-08-01 10:26:00,73.7,58.7,29.95,NNW,343,2.0,5.0,59,0.00,,,0.00,WUHU216DAVISVP2,2015-08-01 17:26:00,
2015-08-01 10:31:00,73.7,57.2,29.95,North,355,0.0,7.0,56,0.00,,,0.00,WUHU216DAVISVP2,2015-08-01 17:31:00,
2015-08-01 10:36:00,73.9,57.4,29.95,North,351,0.0,7.0,56,0.00,,,0.00,WUHU216DAVISVP2,2015-08-01 17:36:00,
2015-08-01 10:41:00,73.9,56.9,29.95,North,355,5.0,5.0,55,0.00,,,0.00,WUHU216DAVISVP2,2015-08-01 17:41:00,
2015-08-01 10:46:00,73.7,57.2,29.95,North,350,0.0,6.0,56,0.00,,,0.00,WUHU216DAVISVP2,2015-08-01 17:46:00,
2015-08-01 10:51:00,74.3,57.2,29.95,North,355,3.0,6.0,55,0.00,,,0.00,WUHU216DAVISVP2,2015-08-01 17:51:00,
2015-08-01 10:56:00,74.9,57.3,29.95,North,355,0.0,6.0,54,0.00,,,0.00,WUHU216DAVISVP2,2015-08-01 17:56:00,
2015-08-01 11:01:00,75.6,57.4,29.95,North,355,0.0,5.0,53,0.00,,,0.00,WUHU216DAVISVP2,2015-08-01 18:01:00,
2015-08-01 11:06:00,75.4,57.2,29.95,NNE,26,6.0,11.0,53,0.00,,,0.00,WUHU216DAVISVP2,2015-08-01 18:06:00,
2015-08-01 11:11:00,75.1,57.5,29.95,NNE,22,2.0,11.0,54,0.00,,,0.00,WUHU216DAVISVP2,2015-08-01 18:11:00,
2015-08-01 11:16:00,75.3,57.7,29.95,North,355,4.0,8.0,54,0.00,,,0.00,WUHU216DAVISVP2,2015-08-01 18:16:00,
2015-08-01 11:21:00,75.3,57.7,29.94,NNE,30,1.0,7.0,54,0.00,,,0.00,WUHU216DAVISVP2,2015-08-01 18:21:00,
2015-08-01 11:26:00,75.4,56.7,29.94,NNE,26,8.0,8.0,52,0.00,,,0.00,WUHU216DAVISVP2,2015-08-01 18:26:00,
2015-08-01 11:31:00,75.7,56.4,29.94,NNE,15,1.0,10.0,51,0.00,,,0.00,WUHU216DAVISVP2,2015-08-01 18:31:00,
2015-08-01 11:36:00,75.8,56.5,29.94,NNE,25,7.0,10.0,51,0.00,,,0.00,WUHU216DAVISVP2,2015-08-01 18:36:00,
2015-08-01 11:41:00,75.5,55.0,29.94,NNE,17,1.0,8.0,49,0.00,,,0.00,WUHU216DAVISVP2,2015-08-01 18:41:00,
2015-08-01 11:46:00,75.4,56.0,29.94,NNE,25,0.0,8.0,51,0.00,,,0.00,WUHU216DAVISVP2,2015-08-01 18:46:00,
2015-08-01 11:51:00,75.6,56.3,29.94,North,5,3.0,8.0,51,0.00,,,0.00,WUHU216DAVISVP2,2015-08-01 18:51:00,
2015-08-01 11:56:00,76.1,56.8,29.94,NE,38,3.0,8.0,51,0.00,,,0.00,WUHU216DAVISVP2,2015-08-01 18:56:00,
2015-08-01 12:01:00,76.8,56.8,29.94,North,5,5.0,9.0,50,0.00,,,0.00,WUHU216DAVISVP2,2015-08-01 19:01:00,
2015-08-01 12:06:00,77.6,56.4,29.94,NNW,348,5.0,9.0,48,0.00,,,0.00,WUHU216DAVISVP2,2015-08-01 19:06:00,
2015-08-01 12:11:00,77.6,56.4,29.93,North,355,3.0,8.0,48,0.00,,,0.00,WUHU216DAVISVP2,2015-08-01 19:11:00,
2015-08-01 12:16:00,77.9,56.6,29.93,NNE,31,1.0,8.0,48,0.00,,,0.00,WUHU216DAVISVP2,2015-08-01 19:16:00,
2015-08-01 12:21:00,77.7,57.0,29.93,NNE,23,0.0,7.0,49,0.00,,,0.00,WUHU216DAVISVP2,2015-08-01 19:21:00,
2015-08-01 12:26:00,77.4,56.2,29.93,North,349,4.0,7.0,48,0.00,,,0.00,WUHU216DAVISVP2,2015-08-01 19:26:00,
2015-08-01 12:31:00,77.0,56.5,29.92,North,360,0.0,5.0,49,0.00,,,0.00,WUHU216DAVISVP2,2015-08-01 19:31:00,
2015-08-01 12:36:00,76.4,56.5,29.93,North,5,0.0,5.0,50,0.00,,,0.00,WUHU216DAVISVP2,2015-08-01 19:36:00,
2015-08-01 12:41:00,76.1,56.2,29.93,North,5,0.0,4.0,50,0.00,,,0.00,WUHU216DAVISVP2,2015-08-01 19:41:00,
2015-08-01 12:46:00,75.8,56.5,29.92,North,5,0.0,4.0,51,0.00,,,0.00,WUHU216DAVISVP2,2015-08-01 19:46:00,
2015-08-01 12:51:00,75.8,57.0,29.92,NNE,13,0.0,3.0,52,0.00,,,0.00,WUHU216DAVISVP2,2015-08-01 19:51:00,
2015-08-01 12:56:00,75.7,56.4,29.92,NNE,13,2.0,3.0,51,0.00,,,0.00,WUHU216DAVISVP2,2015-08-01 19:56:00,
2015-08-01 13:01:00,75.7,55.8,29.93,NNE,13,0.0,3.0,50,0.00,,,0.00,WUHU216DAVISVP2,2015-08-01 20:01:00,
2015-08-01 13:06:00,75.7,55.8,29.92,NNE,13,0.0,2.0,50,0.00,,,0.00,WUHU216DAVISVP2,2015-08-01 20:06:00,
2015-08-01 13:11:00,75.6,56.3,29.92,NNE,13,0.0,0.0,51,0.00,,,0.00,WUHU216DAVISVP2,2015-08-01 20:11:00,
2015-08-01 13:16:00,75.8,55.9,29.92,NNE,13,0.0,0.0,50,0.00,,,0.00,WUHU216DAVISVP2,2015-08-01 20:16:00,
2015-08-01 13:21:00,75.7,55.8,29.92,NNE,13,0.0,0.0,50,0.00,,,0.00,WUHU216DAVISVP2,2015-08-01 20:21:00,
2015-08-01 13:26:00,75.6,55.7,29.92,NNE,13,0.0,0.0,50,0.00,,,0.00,WUHU216DAVISVP2,2015-08-01 20:26:00,
2015-08-01 13:31:00,75.6,56.3,29.92,NNE,13,0.0,0.0,51,0.00,,,0.00,WUHU216DAVISVP2,2015-08-01 20:31:00,
2015-08-01 13:36:00,75.5,56.8,29.92,North,5,0.0,3.0,52,0.00,,,0.00,WUHU216DAVISVP2,2015-08-01 20:36:00,
2015-08-01 13:41:00,74.9,56.7,29.92,West,281,4.0,5.0,53,0.00,,,0.00,WUHU216DAVISVP2,2015-08-01 20:41:00,
2015-08-01 13:46:00,74.0,57.0,29.92,SW,216,0.0,7.0,55,0.00,,,0.00,WUHU216DAVISVP2,2015-08-01 20:46:00,
2015-08-01 13:51:00,72.9,56.8,29.92,South,177,3.0,7.0,57,0.00,,,0.00,WUHU216DAVISVP2,2015-08-01 20:51:00,
2015-08-01 13:56:00,71.9,57.7,29.92,South,183,0.0,7.0,61,0.00,,,0.00,WUHU216DAVISVP2,2015-08-01 20:56:00,
2015-08-01 14:01:00,71.2,57.7,29.92,South,183,0.0,7.0,62,0.00,,,0.00,WUHU216DAVISVP2,2015-08-01 21:01:00,
2015-08-01 14:06:00,70.7,58.1,29.92,South,185,0.0,5.0,64,0.00,,,0.00,WUHU216DAVISVP2,2015-08-01 21:06:00,
2015-08-01 14:11:00,70.5,57.9,29.91,South,185,0.0,5.0,64,0.00,,,0.00,WUHU216DAVISVP2,2015-08-01 21:11:00,
2015-08-01 14:16:00,70.4,58.3,29.91,South,185,0.0,2.0,65,0.00,,,0.00,WUHU216DAVISVP2,2015-08-01 21:16:00,
2015-08-01 14:21:00,70.6,58.5,29.90,South,184,2.0,5.0,65,0.00,,,0.00,WUHU216DAVISVP2,2015-08-01 21:21:00,
2015-08-01 14:26:00,70.5,58.6,29.90,SSE,164,0.0,6.0,66,0.00,,,0.00,WUHU216DAVISVP2,2015-08-01 21:26:00,
2015-08-01 14:31:00,70.4,58.5,29.90,South,169,2.0,6.0,66,0.00,,,0.00,WUHU216DAVISVP2,2015-08-01 21:31:00,
2015-08-01 14:36:00,70.6,58.7,29.90,South,171,1.0,6.0,66,0.00,,,0.00,WUHU216DAVISVP2,2015-08-01 21:36:00,
2015-08-01 14:41:00,72.1,59.5,29.90,South,170,0.0,6.0,64,0.00,,,0.00,WUHU216DAVISVP2,2015-08-01 21:41:00,
2015-08-01 14:46:00,73.5,59.9,29.90,SSW,192,5.0,7.0,62,0.00,,,0.00,WUHU216DAVISVP2,2015-08-01 21:46:00,
2015-08-01 14:51:00,74.5,58.8,29.89,SSW,200,3.0,7.0,58,0.00,,,0.00,WUHU216DAVISVP2,2015-08-01 21:51:00,
2015-08-01 14:56:00,75.0,58.2,29.89,SSW,201,6.0,6.0,56,0.00,,,0.00,WUHU216DAVISVP2,2015-08-01 21:56:00,
2015-08-01 15:01:00,76.7,56.8,29.89,South,186,3.0,8.0,50,0.00,,,0.00,WUHU216DAVISVP2,2015-08-01 22:01:00,
2015-08-01 15:06:00,77.5,56.3,29.89,SSW,194,1.0,8.0,48,0.00,,,0.00,WUHU216DAVISVP2,2015-08-01 22:06:00,
2015-08-01 15:11:00,78.5,56.0,29.89,SSW,194,0.0,5.0,46,0.00,,,0.00,WUHU216DAVISVP2,2015-08-01 22:11:00,
2015-08-01 15:16:00,80.1,55.6,29.88,SSW,199,0.0,4.0,43,0.00,,,0.00,WUHU216DAVISVP2,2015-08-01 22:16:00,
2015-08-01 15:21:00,80.6,54.7,29.88,SW,236,3.0,7.0,41,0.00,,,0.00,WUHU216DAVISVP2,2015-08-01 22:21:00,
2015-08-01 15:26:00,80.2,58.1,29.88,West,278,1.0,10.0,47,0.00,,,0.00,WUHU216DAVISVP2,2015-08-01 22:26:00,
2015-08-01 15:31:00,80.1,56.2,29.88,West,281,2.0,10.0,44,0.00,,,0.00,WUHU216DAVISVP2,2015-08-01 22:31:00,
2015-08-01 15:36:00,80.5,55.9,29.87,WNW,295,3.0,10.0,43,0.00,,,0.00,WUHU216DAVISVP2,2015-08-01 22:36:00,
2015-08-01 15:41:00,80.5,56.6,29.87,West,276,0.0,9.0,44,0.00,,,0.00,WUHU216DAVISVP2,2015-08-01 22:41:00,
2015-08-01 15:46:00,80.1,56.9,29.87,WSW,256,1.0,9.0,45,0.00,,,0.00,WUHU216DAVISVP2,2015-08-01 22:46:00,
2015-08-01 15:51:00,80.7,56.8,29.86,WSW,258,0.0,7.0,44,0.00,,,0.00,WUHU216DAVISVP2,2015-08-01 22:51:00,
2015-08-01 15:56:00,82.2,56.1,29.86,WSW,258,0.0,4.0,41,0.00,,,0.00,WUHU216DAVISVP2,2015-08-01 22:56:00,
2015-08-01 16:01:00,82.7,56.6,29.86,NW,309,0.0,7.0,41,0.00,,,0.00,WUHU216DAVISVP2,2015-08-01 23:01:00,
2015-08-01 16:06:00,82.9,55.3,29.86,NW,309,1.0,7.0,39,0.00,,,0.00,WUHU216DAVISVP2,2015-08-01 23:06:00,
2015-08-01 16:11:00,82.8,54.5,29.86,NW,309,1.0,4.0,38,0.00,,,0.00,WUHU216DAVISVP2,2015-08-01 23:11:00,
2015-08-01 16:16:00,82.7,55.1,29.86,NW,308,1.0,3.0,39,0.00,,,0.00,WUHU216DAVISVP2,2015-08-01 23:16:00,
2015-08-01 16:21:00,82.5,55.0,29.85,NW,320,3.0,5.0,39,0.00,,,0.00,WUHU216DAVISVP2,2015-08-01 23:21:00,
2015-08-01 16:26:00,82.9,55.3,29.85,NW,320,0.0,5.0,39,0.00,,,0.00,WUHU216DAVISVP2,2015-08-01 23:26:00,
2015-08-01 16:31:00,83.7,54.7,29.85,NW,315,2.0,4.0,37,0.00,,,0.00,WUHU216DAVISVP2,2015-08-01 23:31:00,
2015-08-01 16:36:00,83.1,54.8,29.85,NW,311,0.0,4.0,38,0.00,,,0.00,WUHU216DAVISVP2,2015-08-01 23:36:00,
2015-08-01 16:41:00,83.1,54.9,29.84,WNW,298,0.0,4.0,38,0.00,,,0.00,WUHU216DAVISVP2,2015-08-01 23:41:00,
2015-08-01 16:46:00,83.2,54.9,29.85,WNW,298,2.0,3.0,38,0.00,,,0.00,WUHU216DAVISVP2,2015-08-01 23:46:00,
2015-08-01 16:51:00,83.6,55.3,29.84,WNW,291,1.0,5.0,38,0.00,,,0.00,WUHU216DAVISVP2,2015-08-01 23:51:00,
2015-08-01 16:56:00,83.7,54.6,29.84,WNW,291,2.0,5.0,37,0.00,,,0.00,WUHU216DAVISVP2,2015-08-01 23:56:00,
2015-08-01 17:01:00,83.6,54.6,29.84,WNW,291,0.0,4.0,37,0.00,,,0.00,WUHU216DAVISVP2,2015-08-02 00:01:00,
2015-08-01 17:06:00,83.8,54.7,29.83,WNW,291,1.0,3.0,37,0.00,,,0.00,WUHU216DAVISVP2,2015-08-02 00:06:00,
2015-08-01 17:11:00,83.8,54.7,29.83,WNW,291,0.0,4.0,37,0.00,,,0.00,WUHU216DAVISVP2,2015-08-02 00:11:00,
2015-08-01 17:16:00,83.8,54.7,29.83,WNW,299,0.0,4.0,37,0.00,,,0.00,WUHU216DAVISVP2,2015-08-02 00:16:00,
2015-08-01 17:21:00,83.5,54.4,29.83,NW,313,1.0,5.0,37,0.00,,,0.00,WUHU216DAVISVP2,2015-08-02 00:21:00,
2015-08-01 17:26:00,83.0,54.8,29.83,NW,321,3.0,7.0,38,0.00,,,0.00,WUHU216DAVISVP2,2015-08-02 00:26:00,
2015-08-01 17:31:00,82.5,55.0,29.82,NW,321,0.0,7.0,39,0.00,,,0.00,WUHU216DAVISVP2,2015-08-02 00:31:00,
2015-08-01 17:36:00,81.7,54.3,29.82,NNW,332,0.0,6.0,39,0.00,,,0.00,WUHU216DAVISVP2,2015-08-02 00:36:00,
2015-08-01 17:41:00,81.8,54.3,29.82,NNW,327,2.0,6.0,39,0.00,,,0.00,WUHU216DAVISVP2,2015-08-02 00:41:00,
2015-08-01 17:46:00,81.7,55.0,29.82,NNW,336,0.0,6.0,40,0.00,,,0.00,WUHU216DAVISVP2,2015-08-02 00:46:00,
2015-08-01 17:51:00,82.3,54.8,29.82,NNW,336,0.0,6.0,39,0.00,,,0.00,WUHU216DAVISVP2,2015-08-02 00:51:00,
2015-08-01 17:56:00,82.2,54.7,29.82,NNW,336,0.0,3.0,39,0.00,,,0.00,WUHU216DAVISVP2,2015-08-02 00:56:00,
2015-08-01 18:01:00,82.4,54.9,29.82,NNW,336,0.0,2.0,39,0.00,,,0.00,WUHU216DAVISVP2,2015-08-02 01:01:00,
2015-08-01 18:06:00,82.5,55.0,29.81,NNW,336,0.0,4.0,39,0.00,,,0.00,WUHU216DAVISVP2,2015-08-02 01:06:00,
2015-08-01 18:11:00,82.2,55.5,29.82,NNW,336,0.0,6.0,40,0.00,,,0.00,WUHU216DAVISVP2,2015-08-02 01:11:00,
2015-08-01 18:16:00,82.1,55.3,29.81,NNW,331,0.0,6.0,40,0.00,,,0.00,WUHU216DAVISVP2,2015-08-02 01:16:00,
2015-08-01 18:21:00,81.3,54.6,29.82,NW,308,1.0,8.0,40,0.00,,,0.00,WUHU216DAVISVP2,2015-08-02 01:21:00,
2015-08-01 18:26:00,80.7,54.8,29.82,NW,309,0.0,8.0,41,0.00,,,0.00,WUHU216DAVISVP2,2015-08-02 01:26:00,
2015-08-01 18:31:00,80.9,54.9,29.82,NW,319,2.0,8.0,41,0.00,,,0.00,WUHU216DAVISVP2,2015-08-02 01:31:00,
2015-08-01 18:36:00,80.7,54.8,29.82,NW,317,0.0,8.0,41,0.00,,,0.00,WUHU216DAVISVP2,2015-08-02 01:36:00,
2015-08-01 18:41:00,80.6,54.7,29.82,NW,318,0.0,4.0,41,0.00,,,0.00,WUHU216DAVISVP2,2015-08-02 01:41:00,
2015-08-01 18:46:00,80.7,54.8,29.82,NW,317,0.0,6.0,41,0.00,,,0.00,WUHU216DAVISVP2,2015-08-02 01:46:00,
2015-08-01 18:51:00,80.8,54.9,29.82,NW,318,0.0,6.0,41,0.00,,,0.00,WUHU216DAVISVP2,2015-08-02 01:51:00,
2015-08-01 18:56:00,80.7,54.8,29.82,NW,319,0.0,4.0,41,0.00,,,0.00,WUHU216DAVISVP2,2015-08-02 01:56:00,
2015-08-01 19:00:00,80.2,55.0,29.83,NW,319,0.0,4.0,42,0.00,,,0.00,WUHU216DAVISVP2,2015-08-02 02:00:00,
2015-08-01 19:05:00,79.4,57.4,29.83,NW,319,0.0,0.0,47,0.01,,,0.01,WUHU216DAVISVP2,2015-08-02 02:05:00,
2015-08-01 19:10:00,77.4,58.5,29.82,NW,319,0.0,0.0,52,0.01,,,0.01,WUHU216DAVISVP2,2015-08-02 02:10:00,
2015-08-01 19:15:00,75.8,60.2,29.83,NW,319,0.0,1.0,58,0.01,,,0.01,WUHU216DAVISVP2,2015-08-02 02:15:00,
2015-08-01 19:20:00,74.0,60.4,29.83,NW,319,0.0,3.0,62,0.02,,,0.02,WUHU216DAVISVP2,2015-08-02 02:20:00,
2015-08-01 19:25:00,72.3,61.3,29.84,NW,319,0.0,3.0,68,0.04,,,0.04,WUHU216DAVISVP2,2015-08-02 02:25:00,
2015-08-01 19:30:00,70.5,55.9,29.84,NW,319,0.0,1.0,60,0.13,,,0.14,WUHU216DAVISVP2,2015-08-02 02:30:00,
2015-08-01 19:35:00,69.6,59.2,29.84,NW,319,0.0,0.0,69,0.28,,,0.29,WUHU216DAVISVP2,2015-08-02 02:35:00,
2015-08-01 19:40:00,68.2,60.1,29.84,NW,316,0.0,2.0,75,0.37,,,0.38,WUHU216DAVISVP2,2015-08-02 02:40:00,
2015-08-01 19:45:00,66.9,58.5,29.84,NW,316,1.0,2.0,74,0.40,,,0.40,WUHU216DAVISVP2,2015-08-02 02:45:00,
2015-08-01 19:50:00,66.8,60.2,29.84,NW,317,0.0,1.0,79,0.43,,,0.43,WUHU216DAVISVP2,2015-08-02 02:50:00,
2015-08-01 19:55:00,66.3,60.7,29.84,NW,317,0.0,1.0,82,0.45,,,0.45,WUHU216DAVISVP2,2015-08-02 02:55:00,
2015-08-01 20:00:00,65.6,60.3,29.84,NW,317,0.0,0.0,83,0.45,,,0.45,WUHU216DAVISVP2,2015-08-02 03:00:00,
2015-08-01 20:05:00,65.3,60.7,29.83,NW,317,0.0,0.0,85,0.44,,,0.45,WUHU216DAVISVP2,2015-08-02 03:05:00,
2015-08-01 20:10:00,65.1,58.8,29.83,NW,317,0.0,0.0,80,0.44,,,0.45,WUHU216DAVISVP2,2015-08-02 03:10:00,
2015-08-01 20:15:00,65.1,59.5,29.84,NW,317,0.0,0.0,82,0.44,,,0.45,WUHU216DAVISVP2,2015-08-02 03:15:00,
2015-08-01 20:20:00,65.0,59.1,29.84,NW,317,0.0,0.0,81,0.43,,,0.45,WUHU216DAVISVP2,2015-08-02 03:20:00,
2015-08-01 20:25:00,64.9,59.6,29.84,NW,317,0.0,0.0,83,0.41,,,0.45,WUHU216DAVISVP2,2015-08-02 03:25:00,
2015-08-01 20:30:00,65.1,61.1,29.84,NW,317,0.0,0.0,87,0.31,,,0.45,WUHU216DAVISVP2,2015-08-02 03:30:00,